sensor_id;sensor_type;location;lat;lon;timestamp;temperature;humidity
5415;DHT22;2730;51.512;7.504;2022-08-21T05:02:41;15.60;99.90
5415;DHT22;2730;51.512;7.504;2022-08-21T05:05:08;15.70;99.90
5415;DHT22;2730;51.512;7.504;2022-08-21T05:07:36;15.70;99.90
5415;DHT22;2730;51.512;7.504;2022-08-21T05:10:04;15.70;99.90
5415;DHT22;2730;51.512;7.504;2022-08-21T05:12:33;15.60;99.90
5415;DHT22;2730;51.512;7.504;2022-08-21T05:15:01;15.70;99.90
5415;DHT22;2730;51.512;7.504;2022-08-21T05:17:27;15.70;99.90
5415;DHT22;2730;51.512;7.504;2022-08-21T05:19:56;15.70;99.90
5415;DHT22;2730;51.512;7.504;2022-08-21T05:22:23;15.80;99.90
5415;DHT22;2730;51.512;7.504;2022-08-21T05:24:50;15.80;99.90
5415;DHT22;2730;51.512;7.504;2022-08-21T05:27:18;15.80;99.90
5415;DHT22;2730;51.512;7.504;2022-08-21T05:29:44;15.90;99.90
5415;DHT22;2730;51.512;7.504;2022-08-21T05:32:12;15.90;99.90
5415;DHT22;2730;51.512;7.504;2022-08-21T05:34:39;16.00;99.90
5415;DHT22;2730;51.512;7.504;2022-08-21T05:37:10;16.00;99.90
5415;DHT22;2730;51.512;7.504;2022-08-21T05:39:37;16.10;99.90
5415;DHT22;2730;51.512;7.504;2022-08-21T05:42:04;16.20;99.90
5415;DHT22;2730;51.512;7.504;2022-08-21T05:44:31;16.20;99.90
5415;DHT22;2730;51.512;7.504;2022-08-21T05:47:04;16.30;99.90
5415;DHT22;2730;51.512;7.504;2022-08-21T05:49:31;16.40;99.90
5415;DHT22;2730;51.512;7.504;2022-08-21T05:51:58;16.40;99.90
5415;DHT22;2730;51.512;7.504;2022-08-21T05:54:26;16.50;99.90
5415;DHT22;2730;51.512;7.504;2022-08-21T05:56:53;16.60;99.90
5415;DHT22;2730;51.512;7.504;2022-08-21T05:59:20;16.70;99.90
5415;DHT22;2730;51.512;7.504;2022-08-21T06:01:47;16.80;99.90
5415;DHT22;2730;51.512;7.504;2022-08-21T06:04:14;16.90;99.90
5415;DHT22;2730;51.512;7.504;2022-08-21T06:06:41;16.90;99.90
5415;DHT22;2730;51.512;7.504;2022-08-21T06:09:08;17.00;99.90
5415;DHT22;2730;51.512;7.504;2022-08-21T06:11:36;17.00;99.90
5415;DHT22;2730;51.512;7.504;2022-08-21T06:14:03;17.10;99.90
5415;DHT22;2730;51.512;7.504;2022-08-21T06:16:32;17.20;99.90
5415;DHT22;2730;51.512;7.504;2022-08-21T06:18:59;17.30;99.90
5415;DHT22;2730;51.512;7.504;2022-08-21T06:21:25;17.40;99.90
5415;DHT22;2730;51.512;7.504;2022-08-21T06:23:52;17.50;99.90
5415;DHT22;2730;51.512;7.504;2022-08-21T06:26:19;17.70;99.90
5415;DHT22;2730;51.512;7.504;2022-08-21T06:28:48;18.00;99.90
5415;DHT22;2730;51.512;7.504;2022-08-21T06:31:17;18.50;99.90
5415;DHT22;2730;51.512;7.504;2022-08-21T06:33:44;19.20;99.90
5415;DHT22;2730;51.512;7.504;2022-08-21T06:36:11;20.50;99.90
5415;DHT22;2730;51.512;7.504;2022-08-21T06:38:38;21.90;99.90
5415;DHT22;2730;51.512;7.504;2022-08-21T06:41:05;23.30;99.90
5415;DHT22;2730;51.512;7.504;2022-08-21T06:43:32;24.40;99.90
5415;DHT22;2730;51.512;7.504;2022-08-21T06:46:01;25.70;99.90
5415;DHT22;2730;51.512;7.504;2022-08-21T06:48:28;26.60;99.90
5415;DHT22;2730;51.512;7.504;2022-08-21T06:50:58;27.30;99.90
5415;DHT22;2730;51.512;7.504;2022-08-21T06:53:25;27.90;99.90
5415;DHT22;2730;51.512;7.504;2022-08-21T06:55:52;28.10;99.90
5415;DHT22;2730;51.512;7.504;2022-08-21T06:58:19;28.40;99.90
5415;DHT22;2730;51.512;7.504;2022-08-21T07:00:48;28.20;99.90
5415;DHT22;2730;51.512;7.504;2022-08-21T07:03:19;28.60;98.90
5415;DHT22;2730;51.512;7.504;2022-08-21T07:05:46;28.90;98.40
5415;DHT22;2730;51.512;7.504;2022-08-21T07:08:13;28.60;98.50
5415;DHT22;2730;51.512;7.504;2022-08-21T07:10:40;28.80;97.30
5415;DHT22;2730;51.512;7.504;2022-08-21T07:13:07;29.10;97.10
5415;DHT22;2730;51.512;7.504;2022-08-21T07:15:34;29.10;97.50
5415;DHT22;2730;51.512;7.504;2022-08-21T07:18:02;28.90;96.30
5415;DHT22;2730;51.512;7.504;2022-08-21T07:20:31;28.90;96.70
5415;DHT22;2730;51.512;7.504;2022-08-21T07:23:00;28.90;96.90
5415;DHT22;2730;51.512;7.504;2022-08-21T07:25:28;28.90;96.40
5415;DHT22;2730;51.512;7.504;2022-08-21T07:27:55;28.70;96.90
5415;DHT22;2730;51.512;7.504;2022-08-21T07:30:22;29.10;96.60
5415;DHT22;2730;51.512;7.504;2022-08-21T07:32:50;29.10;96.00
5415;DHT22;2730;51.512;7.504;2022-08-21T07:35:18;29.30;95.90
5415;DHT22;2730;51.512;7.504;2022-08-21T07:37:47;29.50;95.70
5415;DHT22;2730;51.512;7.504;2022-08-21T07:40:15;29.50;95.40
5415;DHT22;2730;51.512;7.504;2022-08-21T07:42:42;29.50;95.40
5415;DHT22;2730;51.512;7.504;2022-08-21T07:45:11;29.80;95.20
5415;DHT22;2730;51.512;7.504;2022-08-21T07:47:38;29.80;94.90
5415;DHT22;2730;51.512;7.504;2022-08-21T07:50:06;30.30;94.30
5415;DHT22;2730;51.512;7.504;2022-08-21T07:52:33;30.60;93.40
5415;DHT22;2730;51.512;7.504;2022-08-21T07:55:01;30.70;93.20
5415;DHT22;2730;51.512;7.504;2022-08-21T07:57:28;30.80;92.60
5415;DHT22;2730;51.512;7.504;2022-08-21T07:59:55;31.30;92.20
5415;DHT22;2730;51.512;7.504;2022-08-21T08:02:23;31.40;91.30
5415;DHT22;2730;51.512;7.504;2022-08-21T08:04:50;30.60;92.20
5415;DHT22;2730;51.512;7.504;2022-08-21T08:07:17;31.20;91.70
5415;DHT22;2730;51.512;7.504;2022-08-21T08:09:44;31.20;90.50
5415;DHT22;2730;51.512;7.504;2022-08-21T08:12:12;31.00;90.90
5415;DHT22;2730;51.512;7.504;2022-08-21T08:14:39;30.70;90.90
5415;DHT22;2730;51.512;7.504;2022-08-21T08:17:06;30.40;90.70
5415;DHT22;2730;51.512;7.504;2022-08-21T08:19:33;30.60;90.90
5415;DHT22;2730;51.512;7.504;2022-08-21T08:22:00;30.50;90.70
5415;DHT22;2730;51.512;7.504;2022-08-21T08:24:26;30.40;90.50
5415;DHT22;2730;51.512;7.504;2022-08-21T08:26:53;30.30;90.20
5415;DHT22;2730;51.512;7.504;2022-08-21T08:29:23;29.90;90.70
5415;DHT22;2730;51.512;7.504;2022-08-21T08:31:50;29.60;90.50
5415;DHT22;2730;51.512;7.504;2022-08-21T08:34:17;29.40;91.70
5415;DHT22;2730;51.512;7.504;2022-08-21T08:36:45;30.30;90.70
5415;DHT22;2730;51.512;7.504;2022-08-21T08:39:12;31.00;90.10
5415;DHT22;2730;51.512;7.504;2022-08-21T08:41:41;31.80;88.40
5415;DHT22;2730;51.512;7.504;2022-08-21T08:44:09;32.00;86.60
5415;DHT22;2730;51.512;7.504;2022-08-21T08:46:43;30.90;86.70
5415;DHT22;2730;51.512;7.504;2022-08-21T08:49:15;30.20;89.10
5415;DHT22;2730;51.512;7.504;2022-08-21T08:51:47;30.00;89.20
5415;DHT22;2730;51.512;7.504;2022-08-21T08:54:21;30.10;89.20
5415;DHT22;2730;51.512;7.504;2022-08-21T08:56:51;29.80;89.80
5415;DHT22;2730;51.512;7.504;2022-08-21T08:59:24;30.10;86.30
5415;DHT22;2730;51.512;7.504;2022-08-21T09:01:53;29.30;89.60
5415;DHT22;2730;51.512;7.504;2022-08-21T09:04:25;29.80;86.30
5415;DHT22;2730;51.512;7.504;2022-08-21T09:07:00;30.10;86.80
5415;DHT22;2730;51.512;7.504;2022-08-21T09:09:41;30.80;85.40
5415;DHT22;2730;51.512;7.504;2022-08-21T09:12:16;31.60;83.00
5415;DHT22;2730;51.512;7.504;2022-08-21T09:14:52;31.80;82.30
5415;DHT22;2730;51.512;7.504;2022-08-21T09:17:39;32.40;79.20
5415;DHT22;2730;51.512;7.504;2022-08-21T09:20:21;32.60;77.60
5415;DHT22;2730;51.512;7.504;2022-08-21T09:23:00;32.50;76.60
5415;DHT22;2730;51.512;7.504;2022-08-21T09:25:32;32.50;77.50
5415;DHT22;2730;51.512;7.504;2022-08-21T09:28:00;32.80;74.80
5415;DHT22;2730;51.512;7.504;2022-08-21T09:30:28;32.40;76.30
5415;DHT22;2730;51.512;7.504;2022-08-21T09:32:57;32.30;74.50
5415;DHT22;2730;51.512;7.504;2022-08-21T09:35:25;32.20;72.80
5415;DHT22;2730;51.512;7.504;2022-08-21T09:37:53;32.10;72.10
5415;DHT22;2730;51.512;7.504;2022-08-21T09:40:30;31.80;73.60
5415;DHT22;2730;51.512;7.504;2022-08-21T09:42:59;31.50;72.20
5415;DHT22;2730;51.512;7.504;2022-08-21T09:45:27;31.30;74.10
5415;DHT22;2730;51.512;7.504;2022-08-21T09:47:54;31.60;72.70
5415;DHT22;2730;51.512;7.504;2022-08-21T09:50:24;31.50;73.10
5415;DHT22;2730;51.512;7.504;2022-08-21T09:52:54;31.10;73.60
5415;DHT22;2730;51.512;7.504;2022-08-21T09:55:30;30.10;76.50
5415;DHT22;2730;51.512;7.504;2022-08-21T09:58:16;29.80;76.50
5415;DHT22;2730;51.512;7.504;2022-08-21T10:00:44;29.40;76.40
5415;DHT22;2730;51.512;7.504;2022-08-21T10:03:14;29.20;77.30
5415;DHT22;2730;51.512;7.504;2022-08-21T10:05:54;28.70;77.70
5415;DHT22;2730;51.512;7.504;2022-08-21T10:08:23;28.20;78.00
5415;DHT22;2730;51.512;7.504;2022-08-21T10:10:53;28.50;78.80
5415;DHT22;2730;51.512;7.504;2022-08-21T10:13:26;29.40;78.10
5415;DHT22;2730;51.512;7.504;2022-08-21T10:16:04;29.90;76.30
5415;DHT22;2730;51.512;7.504;2022-08-21T10:18:38;30.10;76.70
5415;DHT22;2730;51.512;7.504;2022-08-21T10:21:13;30.40;77.00
5415;DHT22;2730;51.512;7.504;2022-08-21T10:23:56;30.60;76.40
5415;DHT22;2730;51.512;7.504;2022-08-21T10:26:38;30.60;75.70
5415;DHT22;2730;51.512;7.504;2022-08-21T10:29:14;30.40;75.50
5415;DHT22;2730;51.512;7.504;2022-08-21T10:31:49;30.70;75.50
5415;DHT22;2730;51.512;7.504;2022-08-21T10:34:28;31.00;75.10
5415;DHT22;2730;51.512;7.504;2022-08-21T10:37:11;31.20;73.30
5415;DHT22;2730;51.512;7.504;2022-08-21T10:39:47;31.50;72.50
5415;DHT22;2730;51.512;7.504;2022-08-21T10:42:23;30.90;73.40
5415;DHT22;2730;51.512;7.504;2022-08-21T10:45:01;31.20;73.10
5415;DHT22;2730;51.512;7.504;2022-08-21T10:47:34;30.60;72.90
5415;DHT22;2730;51.512;7.504;2022-08-21T10:50:09;30.40;72.30
5415;DHT22;2730;51.512;7.504;2022-08-21T10:52:53;30.40;72.00
5415;DHT22;2730;51.512;7.504;2022-08-21T10:55:24;30.80;72.10
5415;DHT22;2730;51.512;7.504;2022-08-21T10:57:58;30.60;72.40
5415;DHT22;2730;51.512;7.504;2022-08-21T11:00:29;30.10;73.50
5415;DHT22;2730;51.512;7.504;2022-08-21T11:03:04;30.20;74.00
5415;DHT22;2730;51.512;7.504;2022-08-21T11:05:34;29.90;73.30
5415;DHT22;2730;51.512;7.504;2022-08-21T11:08:08;29.30;74.20
5415;DHT22;2730;51.512;7.504;2022-08-21T11:10:40;28.90;76.00
5415;DHT22;2730;51.512;7.504;2022-08-21T11:13:15;28.50;77.70
5415;DHT22;2730;51.512;7.504;2022-08-21T11:15:50;27.70;76.90
5415;DHT22;2730;51.512;7.504;2022-08-21T11:18:22;27.10;79.70
5415;DHT22;2730;51.512;7.504;2022-08-21T11:20:59;27.10;80.90
5415;DHT22;2730;51.512;7.504;2022-08-21T11:23:38;26.90;80.10
5415;DHT22;2730;51.512;7.504;2022-08-21T11:26:10;26.70;80.70
5415;DHT22;2730;51.512;7.504;2022-08-21T11:28:43;26.80;81.70
5415;DHT22;2730;51.512;7.504;2022-08-21T11:31:34;26.90;81.00
5415;DHT22;2730;51.512;7.504;2022-08-21T11:34:14;26.90;80.30
5415;DHT22;2730;51.512;7.504;2022-08-21T11:36:53;26.90;81.00
5415;DHT22;2730;51.512;7.504;2022-08-21T11:39:33;26.90;80.10
5415;DHT22;2730;51.512;7.504;2022-08-21T11:42:09;26.90;79.30
5415;DHT22;2730;51.512;7.504;2022-08-21T11:44:49;26.70;80.30
5415;DHT22;2730;51.512;7.504;2022-08-21T11:47:32;26.60;80.60
5415;DHT22;2730;51.512;7.504;2022-08-21T11:50:09;26.50;80.20
5415;DHT22;2730;51.512;7.504;2022-08-21T11:52:42;26.60;81.50
5415;DHT22;2730;51.512;7.504;2022-08-21T11:55:14;26.60;81.00
5415;DHT22;2730;51.512;7.504;2022-08-21T11:57:49;26.10;82.10
5415;DHT22;2730;51.512;7.504;2022-08-21T12:00:21;26.20;81.60
5415;DHT22;2730;51.512;7.504;2022-08-21T12:02:53;26.50;81.50
5415;DHT22;2730;51.512;7.504;2022-08-21T12:05:29;26.60;79.90
5415;DHT22;2730;51.512;7.504;2022-08-21T12:08:05;26.60;80.80
5415;DHT22;2730;51.512;7.504;2022-08-21T12:10:36;26.60;80.60
5415;DHT22;2730;51.512;7.504;2022-08-21T12:13:24;26.50;81.60
5415;DHT22;2730;51.512;7.504;2022-08-21T12:15:51;26.60;80.50
5415;DHT22;2730;51.512;7.504;2022-08-21T12:18:23;26.60;80.30
5415;DHT22;2730;51.512;7.504;2022-08-21T12:21:03;26.50;81.50
5415;DHT22;2730;51.512;7.504;2022-08-21T12:23:32;26.40;81.00
5415;DHT22;2730;51.512;7.504;2022-08-21T12:26:10;26.10;81.40
5415;DHT22;2730;51.512;7.504;2022-08-21T12:28:39;25.80;81.70
5415;DHT22;2730;51.512;7.504;2022-08-21T12:31:20;25.60;80.60
5415;DHT22;2730;51.512;7.504;2022-08-21T12:33:52;25.60;81.80
5415;DHT22;2730;51.512;7.504;2022-08-21T12:36:23;25.80;81.80
5415;DHT22;2730;51.512;7.504;2022-08-21T12:38:54;25.80;81.60
5415;DHT22;2730;51.512;7.504;2022-08-21T12:41:27;25.90;81.90
5415;DHT22;2730;51.512;7.504;2022-08-21T12:43:59;26.00;80.90
5415;DHT22;2730;51.512;7.504;2022-08-21T12:46:34;25.70;81.00
5415;DHT22;2730;51.512;7.504;2022-08-21T12:49:08;25.40;81.00
5415;DHT22;2730;51.512;7.504;2022-08-21T12:51:52;25.60;81.80
5415;DHT22;2730;51.512;7.504;2022-08-21T12:54:26;25.80;81.10
5415;DHT22;2730;51.512;7.504;2022-08-21T12:56:59;25.80;82.60
5415;DHT22;2730;51.512;7.504;2022-08-21T12:59:26;25.70;82.30
5415;DHT22;2730;51.512;7.504;2022-08-21T13:01:54;25.80;82.30
5415;DHT22;2730;51.512;7.504;2022-08-21T13:04:26;25.80;82.80
5415;DHT22;2730;51.512;7.504;2022-08-21T13:06:59;26.00;81.50
5415;DHT22;2730;51.512;7.504;2022-08-21T13:09:28;26.00;82.30
5415;DHT22;2730;51.512;7.504;2022-08-21T13:11:57;26.00;83.10
5415;DHT22;2730;51.512;7.504;2022-08-21T13:14:29;25.60;82.20
5415;DHT22;2730;51.512;7.504;2022-08-21T13:16:58;25.70;82.80
5415;DHT22;2730;51.512;7.504;2022-08-21T13:19:26;25.90;83.40
5415;DHT22;2730;51.512;7.504;2022-08-21T13:21:55;25.90;82.20
5415;DHT22;2730;51.512;7.504;2022-08-21T13:24:24;25.80;81.60
5415;DHT22;2730;51.512;7.504;2022-08-21T13:26:52;25.70;80.30
5415;DHT22;2730;51.512;7.504;2022-08-21T13:29:22;25.70;79.90
5415;DHT22;2730;51.512;7.504;2022-08-21T13:31:53;25.80;80.60
5415;DHT22;2730;51.512;7.504;2022-08-21T13:34:21;25.50;81.90
5415;DHT22;2730;51.512;7.504;2022-08-21T13:36:52;25.40;81.60
5415;DHT22;2730;51.512;7.504;2022-08-21T13:39:21;25.40;81.40
5415;DHT22;2730;51.512;7.504;2022-08-21T13:41:51;25.30;81.70
5415;DHT22;2730;51.512;7.504;2022-08-21T13:44:24;25.50;81.00
5415;DHT22;2730;51.512;7.504;2022-08-21T13:47:00;25.60;80.20
5415;DHT22;2730;51.512;7.504;2022-08-21T13:49:31;25.60;80.00
5415;DHT22;2730;51.512;7.504;2022-08-21T13:51:58;25.40;80.80
5415;DHT22;2730;51.512;7.504;2022-08-21T13:54:27;25.10;82.50
5415;DHT22;2730;51.512;7.504;2022-08-21T13:56:55;25.00;83.00
5415;DHT22;2730;51.512;7.504;2022-08-21T13:59:30;25.30;82.70
5415;DHT22;2730;51.512;7.504;2022-08-21T14:01:59;25.40;81.60
5415;DHT22;2730;51.512;7.504;2022-08-21T14:04:33;25.50;81.80
5415;DHT22;2730;51.512;7.504;2022-08-21T14:07:02;25.60;82.00
5415;DHT22;2730;51.512;7.504;2022-08-21T14:09:42;25.80;80.00
5415;DHT22;2730;51.512;7.504;2022-08-21T14:12:13;25.80;80.20
5415;DHT22;2730;51.512;7.504;2022-08-21T14:14:43;25.90;81.00
5415;DHT22;2730;51.512;7.504;2022-08-21T14:17:13;26.00;80.70
5415;DHT22;2730;51.512;7.504;2022-08-21T14:19:43;25.90;77.00
5415;DHT22;2730;51.512;7.504;2022-08-21T14:22:27;25.70;78.40
5415;DHT22;2730;51.512;7.504;2022-08-21T14:25:00;25.50;78.10
5415;DHT22;2730;51.512;7.504;2022-08-21T14:27:28;25.40;77.70
5415;DHT22;2730;51.512;7.504;2022-08-21T14:30:00;25.30;78.90
5415;DHT22;2730;51.512;7.504;2022-08-21T14:32:29;25.30;79.80
5415;DHT22;2730;51.512;7.504;2022-08-21T14:34:57;25.30;81.10
5415;DHT22;2730;51.512;7.504;2022-08-21T14:37:24;25.20;80.10
5415;DHT22;2730;51.512;7.504;2022-08-21T14:39:52;25.30;81.70
5415;DHT22;2730;51.512;7.504;2022-08-21T14:42:19;25.30;82.20
5415;DHT22;2730;51.512;7.504;2022-08-21T14:44:46;25.30;81.90
5415;DHT22;2730;51.512;7.504;2022-08-21T14:47:14;25.10;81.20
5415;DHT22;2730;51.512;7.504;2022-08-21T14:49:41;25.00;81.10
5415;DHT22;2730;51.512;7.504;2022-08-21T14:52:08;25.00;82.20
5415;DHT22;2730;51.512;7.504;2022-08-21T14:54:35;24.80;82.40
5415;DHT22;2730;51.512;7.504;2022-08-21T14:57:05;24.80;82.50
5415;DHT22;2730;51.512;7.504;2022-08-21T14:59:32;24.50;81.60
5415;DHT22;2730;51.512;7.504;2022-08-21T15:01:59;24.40;80.00
5415;DHT22;2730;51.512;7.504;2022-08-21T15:04:28;24.40;80.60
5415;DHT22;2730;51.512;7.504;2022-08-21T15:06:55;24.40;81.00
5415;DHT22;2730;51.512;7.504;2022-08-21T15:09:22;24.40;82.20
5415;DHT22;2730;51.512;7.504;2022-08-21T15:11:49;24.40;80.70
5415;DHT22;2730;51.512;7.504;2022-08-21T15:14:20;24.40;80.90
5415;DHT22;2730;51.512;7.504;2022-08-21T15:16:47;24.40;82.20
5415;DHT22;2730;51.512;7.504;2022-08-21T15:19:14;24.50;81.60
5415;DHT22;2730;51.512;7.504;2022-08-21T15:21:43;24.50;82.00
5415;DHT22;2730;51.512;7.504;2022-08-21T15:24:09;24.40;83.00
5415;DHT22;2730;51.512;7.504;2022-08-21T15:26:36;24.40;83.50
5415;DHT22;2730;51.512;7.504;2022-08-21T15:29:06;24.50;83.80
5415;DHT22;2730;51.512;7.504;2022-08-21T15:31:33;24.50;83.40
5415;DHT22;2730;51.512;7.504;2022-08-21T15:34:00;24.50;84.00
5415;DHT22;2730;51.512;7.504;2022-08-21T15:36:27;24.50;83.60
5415;DHT22;2730;51.512;7.504;2022-08-21T15:38:55;24.60;83.30
5415;DHT22;2730;51.512;7.504;2022-08-21T15:41:22;24.70;84.00
5415;DHT22;2730;51.512;7.504;2022-08-21T15:43:51;24.80;83.20
5415;DHT22;2730;51.512;7.504;2022-08-21T15:46:19;24.90;82.80
5415;DHT22;2730;51.512;7.504;2022-08-21T15:48:47;24.90;81.90
5415;DHT22;2730;51.512;7.504;2022-08-21T15:51:15;25.00;82.10
5415;DHT22;2730;51.512;7.504;2022-08-21T15:53:43;25.20;82.50
5415;DHT22;2730;51.512;7.504;2022-08-21T15:56:20;25.30;82.60
5415;DHT22;2730;51.512;7.504;2022-08-21T15:58:48;25.40;82.20
5415;DHT22;2730;51.512;7.504;2022-08-21T16:01:15;25.40;82.30
5415;DHT22;2730;51.512;7.504;2022-08-21T16:03:43;25.10;81.80
5415;DHT22;2730;51.512;7.504;2022-08-21T16:06:12;25.00;82.20
5415;DHT22;2730;51.512;7.504;2022-08-21T16:08:39;25.00;83.30
5415;DHT22;2730;51.512;7.504;2022-08-21T16:11:06;25.10;82.80
5415;DHT22;2730;51.512;7.504;2022-08-21T16:13:37;25.10;82.80
5415;DHT22;2730;51.512;7.504;2022-08-21T16:16:05;25.20;82.90
5415;DHT22;2730;51.512;7.504;2022-08-21T16:18:32;25.20;83.10
5415;DHT22;2730;51.512;7.504;2022-08-21T16:20:59;25.00;83.60
5415;DHT22;2730;51.512;7.504;2022-08-21T16:23:26;24.90;83.00
5415;DHT22;2730;51.512;7.504;2022-08-21T16:25:54;24.90;83.10
5415;DHT22;2730;51.512;7.504;2022-08-21T16:28:21;25.00;83.40
5415;DHT22;2730;51.512;7.504;2022-08-21T16:30:51;25.00;82.70
5415;DHT22;2730;51.512;7.504;2022-08-21T16:33:22;25.10;83.40
5415;DHT22;2730;51.512;7.504;2022-08-21T16:35:50;25.20;84.40
5415;DHT22;2730;51.512;7.504;2022-08-21T16:38:17;25.10;84.30
5415;DHT22;2730;51.512;7.504;2022-08-21T16:40:44;25.00;84.50
5415;DHT22;2730;51.512;7.504;2022-08-21T16:43:11;24.80;85.00
5415;DHT22;2730;51.512;7.504;2022-08-21T16:45:42;24.70;85.30
5415;DHT22;2730;51.512;7.504;2022-08-21T16:48:10;24.60;85.50
5415;DHT22;2730;51.512;7.504;2022-08-21T16:50:37;24.50;85.90
5415;DHT22;2730;51.512;7.504;2022-08-21T16:53:04;24.30;86.10
5415;DHT22;2730;51.512;7.504;2022-08-21T16:55:33;24.30;87.00
5415;DHT22;2730;51.512;7.504;2022-08-21T16:58:02;24.20;87.80
5415;DHT22;2730;51.512;7.504;2022-08-21T17:00:30;24.10;86.90
5415;DHT22;2730;51.512;7.504;2022-08-21T17:02:57;24.10;87.60
5415;DHT22;2730;51.512;7.504;2022-08-21T17:05:25;24.10;87.70
5415;DHT22;2730;51.512;7.504;2022-08-21T17:07:52;24.10;87.90
5415;DHT22;2730;51.512;7.504;2022-08-21T17:10:19;24.10;88.10
5415;DHT22;2730;51.512;7.504;2022-08-21T17:12:50;24.10;88.90
5415;DHT22;2730;51.512;7.504;2022-08-21T17:15:22;24.00;88.40
5415;DHT22;2730;51.512;7.504;2022-08-21T17:17:50;24.10;89.10
5415;DHT22;2730;51.512;7.504;2022-08-21T17:20:18;24.10;88.70
5415;DHT22;2730;51.512;7.504;2022-08-21T17:22:46;24.00;88.00
5415;DHT22;2730;51.512;7.504;2022-08-21T17:25:14;23.90;88.20
5415;DHT22;2730;51.512;7.504;2022-08-21T17:27:41;23.80;88.40
5415;DHT22;2730;51.512;7.504;2022-08-21T17:30:11;23.80;88.60
5415;DHT22;2730;51.512;7.504;2022-08-21T17:32:38;23.70;89.60
5415;DHT22;2730;51.512;7.504;2022-08-21T17:35:06;23.70;90.00
5415;DHT22;2730;51.512;7.504;2022-08-21T17:37:33;23.70;90.30
5415;DHT22;2730;51.512;7.504;2022-08-21T17:40:03;23.60;90.20
5415;DHT22;2730;51.512;7.504;2022-08-21T17:42:31;23.50;89.90
5415;DHT22;2730;51.512;7.504;2022-08-21T17:44:58;23.40;90.00
5415;DHT22;2730;51.512;7.504;2022-08-21T17:47:25;23.40;90.00
5415;DHT22;2730;51.512;7.504;2022-08-21T17:49:52;23.30;90.20
5415;DHT22;2730;51.512;7.504;2022-08-21T17:52:19;23.30;90.30
5415;DHT22;2730;51.512;7.504;2022-08-21T17:54:46;23.20;90.40
5415;DHT22;2730;51.512;7.504;2022-08-21T17:57:18;23.10;90.50
5415;DHT22;2730;51.512;7.504;2022-08-21T17:59:46;23.10;90.90
5415;DHT22;2730;51.512;7.504;2022-08-21T18:02:14;23.00;90.70
5415;DHT22;2730;51.512;7.504;2022-08-21T18:04:41;23.00;91.00
5415;DHT22;2730;51.512;7.504;2022-08-21T18:07:08;23.00;91.00
5415;DHT22;2730;51.512;7.504;2022-08-21T18:09:35;22.90;91.20
5415;DHT22;2730;51.512;7.504;2022-08-21T18:12:03;22.90;91.30
5415;DHT22;2730;51.512;7.504;2022-08-21T18:14:33;22.80;91.50
5415;DHT22;2730;51.512;7.504;2022-08-21T18:17:05;22.80;91.40
5415;DHT22;2730;51.512;7.504;2022-08-21T18:19:33;22.80;91.30
5415;DHT22;2730;51.512;7.504;2022-08-21T18:22:01;22.70;91.60
5415;DHT22;2730;51.512;7.504;2022-08-21T18:24:31;22.70;91.70
5415;DHT22;2730;51.512;7.504;2022-08-21T18:26:58;22.60;91.80
5415;DHT22;2730;51.512;7.504;2022-08-21T18:29:25;22.60;91.90
5415;DHT22;2730;51.512;7.504;2022-08-21T18:31:53;22.50;91.80
5415;DHT22;2730;51.512;7.504;2022-08-21T18:34:24;22.50;91.70
5415;DHT22;2730;51.512;7.504;2022-08-21T18:36:52;22.50;91.60
5415;DHT22;2730;51.512;7.504;2022-08-21T18:39:20;22.40;91.60
5415;DHT22;2730;51.512;7.504;2022-08-21T18:41:48;22.30;91.60
5415;DHT22;2730;51.512;7.504;2022-08-21T18:44:17;22.30;91.60
5415;DHT22;2730;51.512;7.504;2022-08-21T18:46:47;22.20;91.70
5415;DHT22;2730;51.512;7.504;2022-08-21T18:49:17;22.20;91.90
5415;DHT22;2730;51.512;7.504;2022-08-21T18:51:44;22.10;92.10
5415;DHT22;2730;51.512;7.504;2022-08-21T18:54:11;22.20;92.00
5415;DHT22;2730;51.512;7.504;2022-08-21T18:56:37;22.10;92.90
5415;DHT22;2730;51.512;7.504;2022-08-21T18:59:04;22.00;92.90
5415;DHT22;2730;51.512;7.504;2022-08-21T19:01:32;21.90;92.80
5415;DHT22;2730;51.512;7.504;2022-08-21T19:03:59;21.80;93.50
5415;DHT22;2730;51.512;7.504;2022-08-21T19:06:27;21.70;94.00
5415;DHT22;2730;51.512;7.504;2022-08-21T19:08:54;21.70;93.90
5415;DHT22;2730;51.512;7.504;2022-08-21T19:11:24;21.60;94.70
5415;DHT22;2730;51.512;7.504;2022-08-21T19:13:51;21.50;95.70
5415;DHT22;2730;51.512;7.504;2022-08-21T19:16:20;21.50;96.50
5415;DHT22;2730;51.512;7.504;2022-08-21T19:18:47;21.40;97.10
5415;DHT22;2730;51.512;7.504;2022-08-21T19:21:14;21.30;97.90
5415;DHT22;2730;51.512;7.504;2022-08-21T19:23:43;21.20;98.50
5415;DHT22;2730;51.512;7.504;2022-08-21T19:26:13;21.10;99.30
5415;DHT22;2730;51.512;7.504;2022-08-21T19:28:42;21.10;99.90
5415;DHT22;2730;51.512;7.504;2022-08-21T19:31:14;21.00;99.90
5415;DHT22;2730;51.512;7.504;2022-08-21T19:33:45;20.90;99.90
5415;DHT22;2730;51.512;7.504;2022-08-21T19:36:14;20.80;99.90
5415;DHT22;2730;51.512;7.504;2022-08-21T19:38:43;20.80;99.90
5415;DHT22;2730;51.512;7.504;2022-08-21T19:41:12;20.60;99.90
5415;DHT22;2730;51.512;7.504;2022-08-21T19:43:41;20.50;99.90
5415;DHT22;2730;51.512;7.504;2022-08-21T19:46:08;20.50;99.90
5415;DHT22;2730;51.512;7.504;2022-08-21T19:48:36;20.40;99.90
5415;DHT22;2730;51.512;7.504;2022-08-21T19:51:04;20.30;99.90
5415;DHT22;2730;51.512;7.504;2022-08-21T19:53:31;20.20;99.90
5415;DHT22;2730;51.512;7.504;2022-08-21T19:56:00;20.20;99.90
5415;DHT22;2730;51.512;7.504;2022-08-21T19:58:34;20.10;99.90
5415;DHT22;2730;51.512;7.504;2022-08-21T20:01:01;20.10;99.90
5415;DHT22;2730;51.512;7.504;2022-08-21T20:03:28;20.00;99.90
5415;DHT22;2730;51.512;7.504;2022-08-21T20:05:55;19.90;99.90
5415;DHT22;2730;51.512;7.504;2022-08-21T20:08:22;19.90;99.90
5415;DHT22;2730;51.512;7.504;2022-08-21T20:10:49;19.80;99.90
5415;DHT22;2730;51.512;7.504;2022-08-21T20:13:18;19.80;99.90
5415;DHT22;2730;51.512;7.504;2022-08-21T20:15:46;19.70;99.90
5415;DHT22;2730;51.512;7.504;2022-08-21T20:18:13;19.80;99.90
5415;DHT22;2730;51.512;7.504;2022-08-21T20:20:40;19.80;99.90
5415;DHT22;2730;51.512;7.504;2022-08-21T20:23:07;19.80;99.90
5415;DHT22;2730;51.512;7.504;2022-08-21T20:25:35;19.90;99.90
5415;DHT22;2730;51.512;7.504;2022-08-21T20:28:02;20.00;99.90
5415;DHT22;2730;51.512;7.504;2022-08-21T20:30:31;20.00;99.90
5415;DHT22;2730;51.512;7.504;2022-08-21T20:32:58;20.10;99.90
5415;DHT22;2730;51.512;7.504;2022-08-21T20:35:24;20.10;99.90
5415;DHT22;2730;51.512;7.504;2022-08-21T20:37:51;20.10;99.90
5415;DHT22;2730;51.512;7.504;2022-08-21T20:40:18;20.10;99.90
5415;DHT22;2730;51.512;7.504;2022-08-21T20:42:47;20.00;99.90
5415;DHT22;2730;51.512;7.504;2022-08-21T20:45:19;20.00;99.90
5415;DHT22;2730;51.512;7.504;2022-08-21T20:47:48;20.00;99.90
5415;DHT22;2730;51.512;7.504;2022-08-21T20:50:20;20.00;99.90
5415;DHT22;2730;51.512;7.504;2022-08-21T20:52:49;20.00;99.90
5415;DHT22;2730;51.512;7.504;2022-08-21T20:55:18;20.00;99.90
5415;DHT22;2730;51.512;7.504;2022-08-21T20:57:53;19.90;99.90
5415;DHT22;2730;51.512;7.504;2022-08-21T21:00:23;19.90;99.90
5415;DHT22;2730;51.512;7.504;2022-08-21T21:03:00;19.80;99.90
5415;DHT22;2730;51.512;7.504;2022-08-21T21:05:30;19.80;99.90
5415;DHT22;2730;51.512;7.504;2022-08-21T21:08:01;19.90;99.90
5415;DHT22;2730;51.512;7.504;2022-08-21T21:10:34;19.80;99.90
5415;DHT22;2730;51.512;7.504;2022-08-21T21:13:06;19.80;99.90
5415;DHT22;2730;51.512;7.504;2022-08-21T21:15:35;19.80;99.90
5415;DHT22;2730;51.512;7.504;2022-08-21T21:18:10;19.80;99.90
5415;DHT22;2730;51.512;7.504;2022-08-21T21:20:43;19.70;99.90